Terminal Aerodrome Forecast
Issued by NWS Green Bay, WI

Home | Current Version | Previous Version | Text Only | Print | Product List | Glossary Off
Versions: 1 2 3 4 5 6 7 8 9 10 11 12 13 14 15 16 17 18 19 20 21 22 23 24 25 26 27 28 29 30 31 32 33 34 35 36 37 38 39 40 41 42 43 44 45 46 47 48 49 50

000
FTUS43 KGRB 180000 AAA
TAFGRB
TAF AMD
KGRB 180026Z 1800/1824 02005KT P6SM BKN025
     FM180300 03004KT P6SM SCT035 BKN090
     FM180600 04004KT 6SM BR SCT012 BKN035
      TEMPO 1809/1813 2SM BR BKN009
     FM181400 14006KT 5SM BR BKN035 OVC060 PROB30 1816/1819 4SM SHRA
      BR OVC025
     FM181900 16007KT 5SM -SHRA BKN035=

USA.gov is the U.S. government's official web portal to all federal, state and local government web resources and services.